Time;durP1;ratioP1;P1;durP2;ratioP2;P2;SDS_P1;SDS_P2;PMS_P1;PMS_P2;Temp;Humidity;BMP_temperature;BMP_pressure;BME280_temperature;BME280_humidity;BME280_pressure;Samples;Min_cycle;Max_cycle;Signal;HPM_P1;HPM_P2
2024/04/22 00:01:19;;;;;;;8.80;7.57;;;;;;;-140.33;100.00;61596.09;5427973;26;20049;-70
2024/04/22 00:03:45;;;;;;;11.30;8.63;;;;;;;-140.33;100.00;61596.09;5431719;26;20014;-71
2024/04/22 00:06:10;;;;;;;10.55;8.77;;;;;;;-140.33;100.00;61596.09;5426909;26;20338;-70
2024/04/22 00:08:36;;;;;;;9.13;7.22;;;;;;;-140.33;100.00;61596.09;5428643;26;20010;-70
2024/04/22 00:11:02;;;;;;;8.48;6.72;;;;;;;-140.33;100.00;61596.09;5426309;26;19999;-69
2024/04/22 00:13:27;;;;;;;6.85;6.15;;;;;;;-140.33;100.00;61596.09;5433118;26;20020;-69
2024/04/22 00:15:53;;;;;;;8.10;6.40;;;;;;;-140.33;100.00;61596.09;5433623;26;19999;-70
2024/04/22 00:18:18;;;;;;;6.95;5.80;;;;;;;-140.33;100.00;61596.09;5431206;26;20383;-70
2024/04/22 00:20:43;;;;;;;5.90;5.28;;;;;;;-140.33;100.00;61596.09;5443920;26;20049;-70
2024/04/22 00:23:09;;;;;;;4.80;4.40;;;;;;;-140.33;100.00;61596.09;5424641;26;20329;-70
2024/04/22 00:25:34;;;;;;;5.20;3.47;;;;;;;-140.33;100.00;61596.09;5437070;26;19999;-70
2024/04/22 00:28:00;;;;;;;4.20;2.83;;;;;;;-140.33;100.00;61596.09;5434277;26;20104;-70
2024/04/22 00:30:25;;;;;;;3.55;2.85;;;;;;;-140.33;100.00;61596.09;5436316;26;20010;-70
2024/04/22 00:32:50;;;;;;;3.55;3.05;;;;;;;-140.33;100.00;61596.09;5428216;26;20428;-70
2024/04/22 00:35:16;;;;;;;4.72;3.08;;;;;;;-140.33;100.00;61596.09;5429147;26;20010;-69
2024/04/22 00:37:41;;;;;;;2.10;1.90;;;;;;;-140.33;100.00;61596.09;5421471;26;20018;-70
2024/04/22 00:40:07;;;;;;;1.85;1.65;;;;;;;-140.33;100.00;61596.09;5434370;26;20429;-71
2024/04/22 00:42:32;;;;;;;1.20;1.00;;;;;;;11.38;100.00;114006.28;5423189;26;20079;-70
2024/04/22 00:44:58;;;;;;;1.10;1.00;;;;;;;11.09;100.00;111748.41;5429766;26;20010;-69
2024/04/22 00:47:24;;;;;;;1.00;0.70;;;;;;;11.42;100.00;112046.56;5443671;26;19999;-70
2024/04/22 00:49:50;;;;;;;0.98;0.70;;;;;;;11.42;100.00;112615.28;5421704;26;20442;-69
2024/04/22 00:52:17;;;;;;;0.50;0.50;;;;;;;10.99;100.00;113378.88;5431302;26;20000;-70
2024/04/22 00:54:42;;;;;;;0.55;0.50;;;;;;;11.26;100.00;114103.53;5427097;26;20002;-69
2024/04/22 00:57:08;;;;;;;0.75;0.43;;;;;;;11.10;100.00;114796.00;5422707;26;20003;-69
2024/04/22 00:59:34;;;;;;;2.40;0.50;;;;;;;11.24;100.00;115286.41;5426124;26;20053;-71
2024/04/22 01:02:00;;;;;;;0.73;0.47;;;;;;;11.18;100.00;115828.50;5438458;26;20047;-74
2024/04/22 01:04:26;;;;;;;1.17;0.40;;;;;;;11.11;100.00;116285.25;5425731;26;20003;-69
2024/04/22 01:06:51;;;;;;;0.30;0.30;;;;;;;11.02;100.00;116686.91;5428249;26;20301;-69
2024/04/22 01:09:17;;;;;;;0.40;0.30;;;;;;;10.58;100.00;117013.34;5432125;26;20011;-69
2024/04/22 01:11:43;;;;;;;0.20;0.20;;;;;;;10.54;100.00;117313.66;5437626;26;20404;-70
2024/04/22 01:14:08;;;;;;;0.22;0.20;;;;;;;11.14;100.00;117647.06;5423349;26;20077;-69
2024/04/22 01:16:34;;;;;;;1.33;0.43;;;;;;;10.99;100.00;117939.72;5425528;26;20011;-70
2024/04/22 01:18:59;;;;;;;0.90;0.70;;;;;;;10.22;100.00;118192.50;5425487;26;20007;-69
2024/04/22 01:21:28;;;;;;;0.80;0.68;;;;;;;9.57;100.00;118269.13;5427357;26;20003;-70
2024/04/22 01:23:55;;;;;;;1.17;0.90;;;;;;;10.41;100.00;118347.56;5426096;26;20015;-69
2024/04/22 01:26:23;;;;;;;1.80;0.82;;;;;;;10.56;100.00;118385.50;5426700;26;20014;-70
2024/04/22 01:28:49;;;;;;;2.10;1.25;;;;;;;10.50;100.00;118521.81;5429824;26;20000;-69
2024/04/22 01:31:16;;;;;;;2.22;1.63;;;;;;;10.33;100.00;118555.53;5428666;26;20342;-69
2024/04/22 01:33:41;;;;;;;1.23;0.73;;;;;;;10.09;100.00;118692.78;5433550;26;20015;-69
2024/04/22 01:36:07;;;;;;;1.08;0.30;;;;;;;10.69;100.00;118908.06;5428920;26;20342;-70
2024/04/22 01:38:32;;;;;;;0.30;0.30;;;;;;;10.88;100.00;119093.13;5432851;26;20015;-71
2024/04/22 01:40:58;;;;;;;0.47;0.10;;;;;;;10.73;100.00;119250.94;5429052;26;20011;-69
2024/04/22 01:43:23;;;;;;;0.30;0.20;;;;;;;10.37;100.00;119323.25;5432151;26;19999;-72
2024/04/22 01:45:48;;;;;;;0.20;0.20;;;;;;;10.80;100.00;119601.38;5430898;26;20670;-69
2024/04/22 01:48:14;;;;;;;0.30;0.20;;;;;;;10.83;100.00;119750.59;5428086;26;20342;-72
2024/04/22 01:50:39;;;;;;;1.40;0.75;;;;;;;10.52;100.00;119860.81;5428049;26;20080;-70
2024/04/22 01:53:05;;;;;;;6.40;3.75;;;;;;;9.98;100.00;119825.09;5426124;26;20014;-70
2024/04/22 01:55:30;;;;;;;10.63;6.88;;;;;;;9.68;100.00;119830.34;5424627;26;20002;-70
2024/04/22 01:57:56;;;;;;;6.82;4.40;;;;;;;9.30;100.00;119757.72;5423190;26;20002;-70
2024/04/22 02:00:21;;;;;;;2.00;1.13;;;;;;;9.20;100.00;119742.78;5427159;26;20035;-69
2024/04/22 02:02:46;;;;;;;0.90;0.77;;;;;;;9.56;100.00;119779.22;5429300;26;19994;-70
2024/04/22 02:05:12;;;;;;;1.20;0.80;;;;;;;9.32;100.00;119760.19;5435649;26;20396;-70
2024/04/22 02:07:37;;;;;;;0.90;0.70;;;;;;;9.21;100.00;119744.81;5422425;26;20334;-70
2024/04/22 02:10:04;;;;;;;1.80;0.90;;;;;;;9.50;100.00;119791.19;5429411;26;20068;-70
2024/04/22 02:12:30;;;;;;;1.05;0.82;;;;;;;9.12;100.00;119766.00;5428738;26;20113;-69
2024/04/22 02:14:55;;;;;;;2.35;0.95;;;;;;;9.80;100.00;119906.47;5428566;26;20006;-70
2024/04/22 02:17:20;;;;;;;1.52;0.90;;;;;;;9.48;100.00;119879.03;5426443;26;19995;-70
2024/04/22 02:19:46;;;;;;;1.20;0.80;;;;;;;8.55;100.00;119779.16;5424293;26;20007;-70
2024/04/22 02:22:12;;;;;;;1.85;1.00;;;;;;;8.91;100.00;119831.00;5436777;26;20038;-70
2024/04/22 02:24:37;;;;;;;1.58;1.05;;;;;;;9.08;100.00;119907.44;5433677;26;21046;-70
2024/04/22 02:27:03;;;;;;;2.22;1.27;;;;;;;8.28;100.00;119773.41;5425067;26;20785;-70
2024/04/22 02:29:29;;;;;;;2.13;1.30;;;;;;;8.19;100.00;119793.47;5432525;26;20000;-70
2024/04/22 02:31:54;;;;;;;1.73;1.15;;;;;;;-140.33;100.00;61596.09;5417858;26;20016;-69
2024/04/22 02:34:20;;;;;;;1.73;1.10;;;;;;;8.83;100.00;119676.28;5427785;26;19995;-70
2024/04/22 02:36:45;;;;;;;2.10;1.50;;;;;;;8.30;100.00;119742.75;5436667;26;19999;-73
2024/04/22 02:39:10;;;;;;;2.15;1.65;;;;;;;8.43;100.00;119885.00;5423416;26;20034;-72
2024/04/22 02:41:36;;;;;;;2.30;1.58;;;;;;;-140.33;100.00;61596.09;5425650;26;20014;-70
2024/04/22 02:44:01;;;;;;;2.55;1.65;;;;;;;7.83;100.00;119537.50;5421378;26;20384;-70
2024/04/22 02:46:27;;;;;;;1.60;1.48;;;;;;;-140.33;100.00;61596.09;5425764;26;20327;-70
2024/04/22 02:48:52;;;;;;;2.22;1.58;;;;;;;-140.33;100.00;61596.09;5429313;26;20006;-70
2024/04/22 02:51:17;;;;;;;1.77;1.60;;;;;;;8.11;100.00;119286.09;5434450;26;20019;-70
2024/04/22 02:53:43;;;;;;;2.72;1.60;;;;;;;8.37;100.00;119636.06;5431365;26;19995;-70
2024/04/22 02:56:08;;;;;;;2.00;1.70;;;;;;;8.14;100.00;119773.28;5430941;26;20010;-70
2024/04/22 02:58:34;;;;;;;1.92;1.52;;;;;;;8.21;100.00;119892.72;5431984;26;20003;-70
2024/04/22 03:00:59;;;;;;;2.72;2.10;;;;;;;8.14;100.00;119936.25;5435562;26;20017;-71
2024/04/22 03:03:24;;;;;;;3.13;1.80;;;;;;;-140.33;100.00;61596.09;5428166;26;20071;-70
2024/04/22 03:05:50;;;;;;;2.10;1.58;;;;;;;7.63;100.00;119610.91;5431411;26;20074;-70
2024/04/22 03:08:15;;;;;;;1.98;1.77;;;;;;;8.09;100.00;119903.25;5430844;26;20041;-71
2024/04/22 03:10:41;;;;;;;4.80;2.00;;;;;;;8.04;100.00;120011.34;5432991;26;20001;-70
2024/04/22 03:13:09;;;;;;;3.10;2.00;;;;;;;-140.33;100.00;61596.09;5436414;26;20008;-73
2024/04/22 03:15:38;;;;;;;2.60;1.70;;;;;;;-140.33;100.00;61596.09;5430388;26;20368;-70
2024/04/22 03:18:05;;;;;;;2.17;1.73;;;;;;;-140.33;100.00;61596.09;5420133;26;20474;-70
2024/04/22 03:20:31;;;;;;;2.67;1.60;;;;;;;-140.33;100.00;61596.09;5424237;26;20011;-72
2024/04/22 03:22:56;;;;;;;2.67;1.98;;;;;;;-140.33;100.00;61596.09;5437157;26;20011;-70
2024/04/22 03:25:22;;;;;;;2.65;1.80;;;;;;;-140.33;100.00;61596.09;5424770;26;20039;-70
2024/04/22 03:27:47;;;;;;;4.50;1.80;;;;;;;-140.33;100.00;61596.09;5428306;26;20437;-72
2024/04/22 03:30:13;;;;;;;2.10;1.75;;;;;;;-140.33;100.00;61596.09;5427444;26;20041;-71
2024/04/22 03:32:38;;;;;;;2.38;1.90;;;;;;;-140.33;100.00;61596.09;5421609;26;20031;-70
2024/04/22 03:35:04;;;;;;;4.38;1.98;;;;;;;7.65;100.00;118740.88;5431734;26;20126;-70
2024/04/22 03:37:29;;;;;;;2.90;2.10;;;;;;;7.89;100.00;119350.00;5429590;26;20414;-70
2024/04/22 03:39:55;;;;;;;3.72;2.42;;;;;;;7.10;100.00;119535.19;5436663;26;20017;-72
2024/04/22 03:42:20;;;;;;;3.00;2.00;;;;;;;-140.33;100.00;61596.09;5429289;26;19998;-70
2024/04/22 03:44:46;;;;;;;3.17;1.58;;;;;;;-140.33;100.00;61596.09;5432274;26;19996;-70
2024/04/22 03:49:58;;;;;;;2.72;1.70;;;;;;;-140.33;100.00;61596.09;5432607;26;20066;-71
2024/04/22 03:52:24;;;;;;;4.43;1.67;;;;;;;-140.33;100.00;61596.09;5428910;26;20007;-72
2024/04/22 03:54:49;;;;;;;1.80;1.42;;;;;;;-140.33;100.00;61596.09;5433256;26;20010;-72
2024/04/22 03:57:15;;;;;;;3.17;2.08;;;;;;;-140.33;100.00;61596.09;5433882;26;19999;-72
2024/04/22 03:59:41;;;;;;;2.25;1.90;;;;;;;-140.33;100.00;61596.09;5439986;26;20391;-71
2024/04/22 04:02:07;;;;;;;4.07;1.83;;;;;;;-140.33;100.00;61596.09;5434067;26;20003;-72
2024/04/22 04:04:32;;;;;;;4.32;2.35;;;;;;;-140.33;100.00;61596.09;5431061;26;20003;-72
2024/04/22 04:06:58;;;;;;;4.20;2.30;;;;;;;-140.33;100.00;61596.09;5422617;26;20012;-72
2024/04/22 04:09:24;;;;;;;4.35;1.90;;;;;;;-140.33;100.00;61596.09;5426614;26;20335;-72
2024/04/22 04:11:51;;;;;;;3.28;2.20;;;;;;;-140.33;100.00;61596.09;5432633;26;20330;-72
2024/04/22 04:14:16;;;;;;;5.80;2.25;;;;;;;-140.33;100.00;61596.09;5420578;26;20018;-72
2024/04/22 04:16:42;;;;;;;3.40;1.95;;;;;;;-140.33;100.00;61596.09;5429453;26;20465;-73
2024/04/22 04:19:07;;;;;;;3.97;1.88;;;;;;;-140.33;100.00;61596.09;5437098;26;20334;-71
2024/04/22 04:21:33;;;;;;;4.88;2.17;;;;;;;8.10;100.00;118428.88;5437051;26;20434;-72
2024/04/22 04:23:58;;;;;;;5.38;2.10;;;;;;;7.48;100.00;119062.06;5430839;26;20341;-72
2024/04/22 04:26:24;;;;;;;2.80;1.80;;;;;;;7.72;100.00;119451.88;5427279;26;20003;-72
2024/04/22 04:28:50;;;;;;;2.72;2.20;;;;;;;7.99;100.00;119741.63;5417090;26;20011;-72
2024/04/22 04:31:16;;;;;;;5.10;2.28;;;;;;;7.38;100.00;119747.44;5425267;26;20014;-72
2024/04/22 04:33:42;;;;;;;2.22;1.67;;;;;;;7.97;100.00;119971.81;5427836;26;20010;-71
2024/04/22 04:36:09;;;;;;;2.03;1.80;;;;;;;7.67;100.00;119977.66;5421853;26;20084;-71
2024/04/22 04:38:36;;;;;;;1.60;1.50;;;;;;;7.87;100.00;120051.97;5429133;26;20000;-71
2024/04/22 04:41:02;;;;;;;2.15;1.48;;;;;;;8.00;100.00;120130.59;5426286;26;20002;-71
2024/04/22 04:43:29;;;;;;;3.88;1.80;;;;;;;8.64;100.00;120274.78;5426420;26;20007;-71
2024/04/22 04:45:54;;;;;;;3.63;2.00;;;;;;;8.16;100.00;120221.34;5425073;26;20005;-71
2024/04/22 04:48:20;;;;;;;2.28;1.95;;;;;;;8.40;100.00;120255.97;5432202;26;20014;-72
2024/04/22 04:50:46;;;;;;;3.50;1.90;;;;;;;9.01;100.00;120400.84;5435899;26;19995;-72
2024/04/22 04:53:12;;;;;;;2.95;2.00;;;;;;;8.94;100.00;120408.16;5428442;26;20346;-72
2024/04/22 04:55:38;;;;;;;2.90;1.80;;;;;;;9.03;100.00;120476.31;5430946;26;20010;-72
2024/04/22 04:58:03;;;;;;;3.17;2.40;;;;;;;8.77;100.00;120428.94;5429103;26;19999;-72
2024/04/22 05:00:29;;;;;;;2.88;1.90;;;;;;;9.37;100.00;120580.59;5423799;26;20512;-71
2024/04/22 05:02:54;;;;;;;2.95;1.90;;;;;;;9.81;100.00;120627.53;5423684;26;20644;-71
2024/04/22 05:05:20;;;;;;;2.20;2.00;;;;;;;9.61;100.00;120629.03;5417658;26;20007;-71
2024/04/22 05:07:48;;;;;;;2.33;1.80;;;;;;;10.13;100.00;120726.41;5420578;26;20071;-70
2024/04/22 05:10:13;;;;;;;3.38;1.58;;;;;;;10.60;100.00;120842.38;5427533;26;20003;-70
2024/04/22 05:12:39;;;;;;;2.42;1.60;;;;;;;10.35;100.00;120841.41;5424958;26;20010;-71
2024/04/22 05:15:05;;;;;;;2.45;1.77;;;;;;;-140.33;100.00;61596.09;5412810;26;20076;-71
2024/04/22 05:17:30;;;;;;;5.43;1.80;;;;;;;10.33;100.00;120590.47;5420403;26;20000;-71
2024/04/22 05:19:55;;;;;;;2.88;1.67;;;;;;;10.55;100.00;120796.44;5415890;26;20007;-72
2024/04/22 05:22:21;;;;;;;1.90;1.55;;;;;;;10.71;100.00;120920.84;5416535;26;20004;-72
2024/04/22 05:24:47;;;;;;;2.40;1.67;;;;;;;10.67;100.00;120980.28;5418176;26;20334;-71
2024/04/22 05:29:52;;;;;;;2.65;1.58;;;;;;;-140.33;100.00;61596.09;5722134;20;20340;-67
2024/04/22 05:32:18;;;;;;;2.60;1.80;;;;;;;10.73;100.00;120690.59;5436606;26;19999;-65
2024/04/22 05:37:28;;;;;;;1.85;1.65;;;;;;;11.37;100.00;120997.97;5438018;26;20021;-67
2024/04/22 05:39:53;;;;;;;3.20;1.80;;;;;;;11.88;100.00;121151.41;5410642;26;19995;-67
2024/04/22 05:42:19;;;;;;;2.00;1.67;;;;;;;10.82;100.00;121013.16;5412201;26;19995;-68
2024/04/22 05:44:44;;;;;;;2.03;1.60;;;;;;;11.54;100.00;121195.28;5443632;26;19998;-67
2024/04/22 05:47:10;;;;;;;3.80;1.60;;;;;;;-140.33;100.00;61596.09;5441410;26;20076;-67
2024/04/22 05:49:35;;;;;;;2.40;1.55;;;;;;;-140.33;100.00;61596.09;5435582;26;20452;-68
2024/04/22 05:52:01;;;;;;;1.98;1.70;;;;;;;12.38;100.00;120718.16;5414313;26;20002;-69
2024/04/22 05:54:26;;;;;;;2.63;1.80;;;;;;;12.28;100.00;121023.66;5414244;26;20046;-68
2024/04/22 05:56:52;;;;;;;4.25;2.38;;;;;;;13.06;100.00;121276.34;5412301;26;19994;-68
2024/04/22 05:59:17;;;;;;;3.45;1.70;;;;;;;-140.33;100.00;61596.09;5432366;26;20007;-67
2024/04/22 06:01:42;;;;;;;2.22;1.98;;;;;;;-140.33;100.00;61596.09;5435120;26;20010;-67
2024/04/22 06:04:08;;;;;;;1.73;1.63;;;;;;;12.90;100.00;120607.34;5409795;26;20003;-68
2024/04/22 06:06:36;;;;;;;3.38;2.00;;;;;;;-140.33;100.00;61596.09;5414142;26;20014;-68
2024/04/22 06:09:03;;;;;;;4.28;2.13;;;;;;;12.90;100.00;120607.34;5413390;26;20005;-69
2024/04/22 06:11:30;;;;;;;2.60;2.00;;;;;;;-140.33;100.00;61596.09;5434514;26;19996;-66
2024/04/22 06:13:56;;;;;;;4.07;2.40;;;;;;;13.69;100.00;120140.94;5412386;26;20014;-67
2024/04/22 06:16:21;;;;;;;3.40;2.10;;;;;;;13.31;100.00;120612.84;5438000;26;20003;-66
2024/04/22 06:18:47;;;;;;;2.20;2.00;;;;;;;13.13;100.00;120852.97;5417683;26;20017;-65
2024/04/22 06:21:12;;;;;;;5.40;2.75;;;;;;;13.07;100.00;121416.03;5409241;26;20651;-65
2024/04/22 06:23:37;;;;;;;2.47;2.15;;;;;;;13.17;100.00;121598.13;5431705;26;20437;-65
2024/04/22 06:26:04;;;;;;;2.95;2.50;;;;;;;12.55;100.00;121334.78;5411689;26;20395;-65
2024/04/22 06:28:30;;;;;;;3.83;2.17;;;;;;;13.92;100.00;121661.31;5414708;26;20018;-68
2024/04/22 06:30:56;;;;;;;2.85;1.90;;;;;;;13.69;100.00;121652.22;5440112;26;20027;-69
2024/04/22 06:33:21;;;;;;;2.17;1.95;;;;;;;13.50;100.00;121488.78;5439601;26;20007;-68
2024/04/22 06:35:46;;;;;;;3.42;1.60;;;;;;;14.66;100.00;121531.44;5415851;26;20448;-68
2024/04/22 06:38:12;;;;;;;2.58;1.50;;;;;;;14.96;100.00;121465.97;5442938;26;19999;-67
2024/04/22 06:40:37;;;;;;;2.30;1.77;;;;;;;14.79;100.00;121094.25;5442565;26;19999;-69
2024/04/22 06:43:03;;;;;;;2.28;1.60;;;;;;;14.53;100.00;122391.78;5416284;26;20006;-67
2024/04/22 06:45:29;;;;;;;1.98;1.48;;;;;;;14.72;100.00;120462.25;5413861;26;20034;-67
2024/04/22 06:47:54;;;;;;;2.38;1.40;;;;;;;15.34;100.00;120429.53;5413721;26;20043;-68
2024/04/22 06:50:20;;;;;;;1.77;1.42;;;;;;;14.49;100.00;118297.41;5441255;26;20003;-67
2024/04/22 06:52:45;;;;;;;4.32;1.75;;;;;;;15.53;100.00;117385.19;5414068;26;20310;-68
2024/04/22 06:55:11;;;;;;;4.38;1.50;;;;;;;16.49;100.00;116408.69;5416278;26;20512;-69
2024/04/22 06:57:36;;;;;;;2.25;1.38;;;;;;;16.24;100.00;116773.66;5442394;26;19998;-67
2024/04/22 07:00:03;;;;;;;1.42;1.30;;;;;;;14.86;100.00;114781.44;5414736;26;20003;-67
2024/04/22 07:02:28;;;;;;;2.45;1.38;;;;;;;15.70;100.00;116781.19;5415756;26;19999;-69
2024/04/22 07:04:54;;;;;;;1.88;1.30;;;;;;;15.62;100.00;115615.66;5442129;26;20003;-67
2024/04/22 07:07:19;;;;;;;2.42;1.30;;;;;;;15.39;100.00;113721.59;5438321;26;20003;-68
2024/04/22 07:09:46;;;;;;;3.78;1.40;;;;;;;15.77;100.00;113100.31;5414547;26;20017;-66
2024/04/22 07:12:11;;;;;;;1.73;1.60;;;;;;;16.05;100.00;112285.47;5412907;26;20010;-65
2024/04/22 07:14:37;;;;;;;1.52;1.20;;;;;;;15.46;100.00;110167.13;5436222;26;19996;-67
2024/04/22 07:17:02;;;;;;;1.30;1.10;;;;;;;16.95;100.00;106608.72;5414923;26;20067;-66
2024/04/22 07:19:28;;;;;;;1.90;1.10;;;;;;;15.48;100.00;105327.34;5434670;26;20432;-65
2024/04/22 07:21:53;;;;;;;1.70;1.10;;;;;;;15.94;100.00;105760.53;5437929;26;20018;-66
2024/04/22 07:24:19;;;;;;;1.83;1.20;;;;;;;17.50;100.00;106821.09;5437270;26;19995;-67
2024/04/22 07:26:44;;;;;;;1.45;0.85;;;;;;;15.03;100.00;105222.97;5414019;26;19995;-66
2024/04/22 07:29:10;;;;;;;1.52;1.00;;;;;;;17.49;100.00;105575.44;5438472;26;20014;-67
2024/04/22 07:31:35;;;;;;;2.05;0.70;;;;;;;16.68;100.00;105928.28;5411941;26;20049;-66
2024/04/22 07:34:01;;;;;;;1.75;0.75;;;;;;;15.57;100.00;108868.03;5413520;26;22782;-67
2024/04/22 07:36:35;;;;;;;2.20;1.50;;;;;;;17.02;100.00;106843.31;5413525;26;20015;-65
2024/04/22 07:39:02;;;;;;;1.52;1.20;;;;;;;16.55;100.00;105861.69;5435863;26;20010;-65
2024/04/22 07:41:28;;;;;;;2.40;0.90;;;;;;;16.36;100.00;105727.22;5436209;26;20075;-66
2024/04/22 07:43:54;;;;;;;3.70;1.27;;;;;;;16.53;100.00;106129.03;5411588;26;20402;-64
2024/04/22 07:46:21;;;;;;;1.90;1.27;;;;;;;17.99;100.00;105011.91;5412368;26;20512;-65
2024/04/22 07:48:46;;;;;;;0.95;0.90;;;;;;;18.05;100.00;104445.19;5432994;26;20432;-66
2024/04/22 07:51:12;;;;;;;1.40;1.00;;;;;;;18.05;100.00;103161.50;5411232;26;19999;-67
2024/04/22 07:53:38;;;;;;;2.40;2.20;;;;;;;17.85;100.00;102873.31;5411254;26;19999;-65
2024/04/22 07:56:11;;;;;;;2.45;1.02;;;;;;;16.27;100.00;102946.44;5437607;26;20422;-66
2024/04/22 07:58:37;;;;;;;2.10;1.30;;;;;;;17.88;100.00;103114.44;5410456;26;20071;-66
2024/04/22 08:01:03;;;;;;;4.47;1.60;;;;;;;17.10;100.00;102778.91;5436322;26;20398;-66
2024/04/22 08:03:28;;;;;;;1.30;1.10;;;;;;;17.34;100.00;102758.94;5410336;26;20010;-64
2024/04/22 08:05:56;;;;;;;1.30;1.10;;;;;;;17.02;100.00;102789.25;5409091;26;20466;-65
2024/04/22 08:08:26;;;;;;;2.05;1.85;;;;;;;16.70;100.00;102602.84;5433308;26;20081;-70
2024/04/22 08:10:52;;;;;;;2.05;1.20;;;;;;;17.55;100.00;102395.06;5414307;26;20402;-64
2024/04/22 08:13:17;;;;;;;1.33;1.17;;;;;;;17.78;100.00;102328.59;5436264;26;20018;-67
2024/04/22 08:15:42;;;;;;;2.47;2.28;;;;;;;17.64;100.00;102329.72;5435579;26;19996;-66
2024/04/22 08:18:09;;;;;;;1.90;1.70;;;;;;;18.36;100.00;102297.28;5414236;26;20014;-64
2024/04/22 08:20:34;;;;;;;3.35;1.27;;;;;;;18.40;100.00;102169.28;5412774;26;20014;-65
2024/04/22 08:22:59;;;;;;;2.22;1.30;;;;;;;18.73;100.00;102116.88;5412608;26;20014;-64
2024/04/22 08:25:25;;;;;;;2.30;1.30;;;;;;;17.70;100.00;101917.91;5436400;26;20334;-67
2024/04/22 08:27:50;;;;;;;1.55;1.35;;;;;;;16.84;100.00;101774.38;5435673;26;20031;-68
2024/04/22 08:30:16;;;;;;;2.38;1.20;;;;;;;17.77;100.00;101821.63;5431644;26;20010;-65
2024/04/22 08:32:41;;;;;;;2.30;1.13;;;;;;;18.07;100.00;101842.22;5412158;26;20439;-65
2024/04/22 08:35:07;;;;;;;1.35;1.10;;;;;;;18.22;100.00;101748.22;5412871;26;20023;-65
2024/04/22 08:37:32;;;;;;;1.50;1.40;;;;;;;17.20;100.00;101608.91;5411826;26;20018;-65
2024/04/22 08:39:58;;;;;;;1.42;1.30;;;;;;;18.26;100.00;101718.06;5412957;26;20006;-64
2024/04/22 08:42:23;;;;;;;1.27;1.10;;;;;;;18.92;100.00;101710.69;5445664;26;20337;-64
2024/04/22 08:44:50;;;;;;;1.23;1.00;;;;;;;18.19;100.00;101627.28;5407300;26;20118;-68
2024/04/22 08:47:16;;;;;;;1.10;1.00;;;;;;;20.28;100.00;101597.94;5443780;26;19995;-65
2024/04/22 08:49:41;;;;;;;1.15;1.05;;;;;;;19.34;100.00;101440.09;5443232;26;19999;-67
2024/04/22 08:52:08;;;;;;;1.70;1.27;;;;;;;19.77;100.00;101502.78;5413830;26;19994;-64
2024/04/22 08:54:35;;;;;;;1.20;1.10;;;;;;;18.60;100.00;101312.41;5414829;26;20052;-64
2024/04/22 08:57:01;;;;;;;1.10;1.00;;;;;;;19.43;100.00;101352.84;5447032;26;20018;-65
2024/04/22 08:59:26;;;;;;;1.85;1.10;;;;;;;19.81;100.00;101296.97;5445256;26;20006;-70
2024/04/22 09:02:02;;;;;;;1.55;1.20;;;;;;;19.82;100.00;101195.41;5459396;26;20003;-67
2024/04/22 09:04:28;;;;;;;4.47;1.50;;;;;;;19.08;100.00;101079.28;5445605;26;19999;-67
2024/04/22 09:06:54;;;;;;;4.70;1.00;;;;;;;19.26;100.00;101154.09;5446012;26;20015;-67
2024/04/22 09:09:21;;;;;;;2.42;1.15;;;;;;;19.24;100.00;101126.69;5435807;26;20018;-66
2024/04/22 09:11:50;;;;;;;4.72;1.77;;;;;;;18.97;100.00;101141.66;5406227;26;20050;-69
2024/04/22 09:14:16;;;;;;;2.30;1.20;;;;;;;20.27;100.00;101210.50;5442586;26;19995;-69
2024/04/22 09:16:42;;;;;;;1.50;1.30;;;;;;;20.02;100.00;101107.50;5409237;26;20006;-69
2024/04/22 09:19:08;;;;;;;1.25;1.15;;;;;;;19.94;100.00;101095.88;5437744;26;20002;-67
2024/04/22 09:21:39;;;;;;;2.03;1.50;;;;;;;20.12;100.00;100996.84;5431767;26;20003;-68
2024/04/22 09:24:09;;;;;;;2.30;1.00;;;;;;;20.01;100.00;101061.94;5405668;26;20008;-68
2024/04/22 09:26:34;;;;;;;1.10;1.00;;;;;;;18.67;100.00;100957.47;5436663;26;20018;-68
2024/04/22 09:29:03;;;;;;;1.10;1.00;;;;;;;18.99;100.00;101032.38;5431515;26;19994;-66
2024/04/22 09:31:33;;;;;;;1.30;1.10;;;;;;;19.40;100.00;101011.63;5436650;26;20035;-67
2024/04/22 09:34:02;;;;;;;1.85;1.10;;;;;;;20.33;100.00;100996.59;5436230;26;20006;-68
2024/04/22 09:36:28;;;;;;;1.38;1.20;;;;;;;20.46;100.00;100878.78;5406993;26;20014;-69
2024/04/22 09:38:56;;;;;;;2.92;1.10;;;;;;;19.09;100.00;100875.56;5432143;26;19999;-69
2024/04/22 09:41:25;;;;;;;2.30;1.30;;;;;;;20.11;100.00;100882.38;4683777;26;10022680;-68
2024/04/22 09:43:53;;;;;;;1.40;1.25;;;;;;;19.96;100.00;100844.47;5433930;26;20006;-67
2024/04/22 09:46:19;;;;;;;1.20;1.10;;;;;;;19.99;100.00;100820.22;5466506;26;20070;-70
2024/04/22 09:48:46;;;;;;;1.25;1.00;;;;;;;19.85;100.00;100741.75;5439641;26;19994;-67
2024/04/22 09:51:11;;;;;;;2.78;1.23;;;;;;;19.58;100.00;100701.97;5471551;26;20364;-67
2024/04/22 09:53:41;;;;;;;1.33;1.15;;;;;;;20.43;100.00;100723.94;5477528;25;20046;-68
2024/04/22 09:56:24;;;;;;;1.42;1.30;;;;;;;19.45;100.00;100693.19;5476369;26;20002;-66
2024/04/22 09:58:50;;;;;;;1.10;1.00;;;;;;;19.26;100.00;100669.25;5479575;26;20499;-69
2024/04/22 10:01:15;;;;;;;2.42;1.35;;;;;;;20.20;100.00;100674.47;5474275;26;20526;-68
2024/04/22 10:03:41;;;;;;;1.45;1.20;;;;;;;20.82;100.00;100461.47;5449955;26;19994;-68
2024/04/22 10:06:07;;;;;;;1.50;1.30;;;;;;;20.43;100.00;100460.41;5444827;26;19998;-68
2024/04/22 10:08:33;;;;;;;1.40;1.20;;;;;;;21.23;100.00;100284.66;5478487;25;20067;-68
2024/04/22 10:11:06;;;;;;;2.65;1.17;;;;;;;19.12;100.00;100119.22;5479605;26;20704;-67
2024/04/22 10:13:31;;;;;;;2.92;1.33;;;;;;;20.40;100.00;99876.00;5477580;25;19998;-67
2024/04/22 10:15:57;;;;;;;2.30;1.50;;;;;;;21.09;100.00;99808.09;5441781;26;20022;-67
2024/04/22 10:18:22;;;;;;;1.40;1.30;;;;;;;20.60;100.00;99628.19;5443170;26;20044;-67
2024/04/22 10:20:48;;;;;;;2.15;1.48;;;;;;;19.33;100.00;99795.66;5411102;26;20007;-67
2024/04/22 10:23:14;;;;;;;1.50;1.35;;;;;;;21.04;100.00;99611.13;5412871;26;19995;-67
2024/04/22 10:25:41;;;;;;;2.10;1.90;;;;;;;20.54;100.00;99610.56;5409522;26;20009;-67
2024/04/22 10:28:06;;;;;;;1.83;1.70;;;;;;;21.48;100.00;99704.22;5441450;26;20015;-68
2024/04/22 10:30:40;;;;;;;4.30;3.90;;;;;;;20.55;100.00;99867.16;5443136;26;20018;-69
2024/04/22 10:33:06;;;;;;;1.98;1.73;;;;;;;19.43;100.00;99930.78;5437113;26;20015;-68
2024/04/22 10:35:32;;;;;;;2.25;1.70;;;;;;;20.14;100.00;99846.78;5411844;26;20128;-67
2024/04/22 10:37:59;;;;;;;2.47;2.03;;;;;;;19.65;100.00;99830.41;5441044;26;19999;-66
2024/04/22 10:40:25;;;;;;;2.13;1.33;;;;;;;20.85;100.00;99914.09;5410564;26;20014;-66
2024/04/22 10:42:52;;;;;;;1.40;1.30;;;;;;;20.50;100.00;100086.25;5444359;26;19995;-66
2024/04/22 10:45:19;;;;;;;2.00;1.45;;;;;;;20.62;100.00;100183.59;5443212;26;20011;-67
2024/04/22 10:47:45;;;;;;;2.53;1.40;;;;;;;20.01;100.00;100309.78;5411573;26;20052;-67
2024/04/22 10:50:15;;;;;;;1.52;1.30;;;;;;;21.23;100.00;100237.25;5411128;26;20807;-67
2024/04/22 10:52:40;;;;;;;1.60;1.50;;;;;;;20.94;100.00;100243.50;5444268;26;19999;-68
2024/04/22 10:55:07;;;;;;;1.40;1.30;;;;;;;20.20;100.00;100290.53;5443746;26;20003;-66
2024/04/22 10:57:33;;;;;;;1.60;1.50;;;;;;;21.29;100.00;100394.66;5444181;26;20006;-65
2024/04/22 11:00:00;;;;;;;1.92;1.38;;;;;;;21.83;100.00;100432.41;5443631;26;20126;-67
2024/04/22 11:02:26;;;;;;;1.40;1.30;;;;;;;19.98;100.00;100511.34;5444587;26;20005;-68
2024/04/22 11:04:52;;;;;;;1.40;1.30;;;;;;;20.84;100.00;100459.63;5415303;26;20071;-65
2024/04/22 11:07:19;;;;;;;3.15;1.70;;;;;;;21.06;100.00;100555.63;5416646;26;20007;-66
2024/04/22 11:09:45;;;;;;;1.67;1.50;;;;;;;20.48;100.00;100515.19;5446257;26;20003;-67
2024/04/22 11:12:11;;;;;;;2.17;1.50;;;;;;;20.54;100.00;100658.72;5416900;26;20015;-66
2024/04/22 11:14:38;;;;;;;2.53;1.70;;;;;;;20.85;100.00;100650.81;5413905;26;20017;-66
2024/04/22 11:17:04;;;;;;;1.85;1.58;;;;;;;20.36;100.00;100753.59;5416385;26;20003;-66
2024/04/22 11:19:29;;;;;;;1.50;1.40;;;;;;;21.27;100.00;100567.25;5448047;26;20075;-66